Time;durP1;ratioP1;P1;durP2;ratioP2;P2;SDS_P1;SDS_P2;PMS_P1;PMS_P2;Temp;Humidity;BMP_temperature;BMP_pressure;BME280_temperature;BME280_humidity;BME280_pressure;Samples;Min_cycle;Max_cycle;Signal;HPM_P1;HPM_P2
2021/09/21 00:01:15;;;;;;;6.57;3.45;;;8.80;99.90;;;7.28;100.00;102799.38;4992026;28;20042;-73
2021/09/21 00:03:41;;;;;;;5.10;3.35;;;8.80;99.90;;;7.28;100.00;102802.00;4990611;28;20056;-74
2021/09/21 00:06:08;;;;;;;11.05;4.28;;;8.80;99.90;;;7.28;100.00;102822.97;4992407;28;20049;-73
2021/09/21 00:08:38;;;;;;;8.45;4.10;;;8.80;99.90;;;7.27;100.00;102789.78;4974137;28;20087;-74
2021/09/21 00:11:06;;;;;;;11.20;4.40;;;8.80;99.90;;;7.24;100.00;102701.56;4986484;28;20077;-73
2021/09/21 00:13:34;;;;;;;6.53;3.58;;;8.80;99.90;;;7.20;100.00;102736.50;4989396;28;20117;-73
2021/09/21 00:16:02;;;;;;;9.50;4.03;;;8.70;99.90;;;7.18;100.00;102740.88;4981215;28;20126;-74
2021/09/21 00:18:28;;;;;;;9.40;4.30;;;8.70;99.90;;;7.12;100.00;102786.28;4988044;28;20148;-73
2021/09/21 00:20:54;;;;;;;10.23;4.00;;;8.70;99.90;;;7.08;100.00;102787.16;4968043;28;20401;-73
2021/09/21 00:23:20;;;;;;;7.82;4.30;;;8.60;99.90;;;7.02;100.00;102812.47;4947101;28;20155;-73
2021/09/21 00:25:47;;;;;;;8.40;3.97;;;8.60;99.90;;;7.00;100.00;102864.88;4973621;28;20413;-73
2021/09/21 00:28:13;;;;;;;8.43;4.10;;;8.60;99.90;;;7.07;100.00;102864.00;4971067;28;20039;-74
2021/09/21 00:30:46;;;;;;;8.20;4.55;;;8.60;99.90;;;7.18;100.00;102895.47;4964200;28;20516;-73
2021/09/21 00:33:18;;;;;;;11.35;4.60;;;8.70;99.90;;;7.19;100.00;102871.00;4964267;28;20077;-74
2021/09/21 00:35:48;;;;;;;9.07;4.90;;;8.60;99.90;;;7.14;100.00;102917.28;4963228;28;21681;-73
2021/09/21 00:38:18;;;;;;;7.55;4.55;;;8.60;99.90;;;7.12;100.00;102925.13;4962275;28;20062;-74
2021/09/21 00:40:46;;;;;;;8.27;4.40;;;8.60;99.90;;;7.12;100.00;102943.47;4962316;28;20100;-74
2021/09/21 00:43:19;;;;;;;12.75;4.40;;;8.60;99.90;;;7.15;100.00;102953.13;4970030;28;20069;-74
2021/09/21 00:45:45;;;;;;;17.50;4.50;;;8.60;99.90;;;7.15;100.00;102940.88;4968248;28;20141;-74
2021/09/21 00:48:11;;;;;;;9.45;4.35;;;8.60;99.90;;;7.15;100.00;102964.47;4988044;28;20465;-74
2021/09/21 00:50:37;;;;;;;11.02;4.88;;;8.70;99.90;;;7.23;100.00;102945.25;4958704;28;20513;-73
2021/09/21 00:53:03;;;;;;;9.88;5.10;;;8.70;99.90;;;7.24;100.00;102988.94;4954144;28;20068;-73
2021/09/21 00:55:31;;;;;;;10.75;4.45;;;8.70;99.90;;;7.28;100.00;103011.66;4971519;28;20063;-73
2021/09/21 00:57:57;;;;;;;13.35;4.80;;;8.70;99.90;;;7.29;100.00;103013.41;4963909;28;20073;-73
2021/09/21 01:00:23;;;;;;;12.85;5.78;;;8.80;99.90;;;7.34;100.00;103087.69;4969580;28;20050;-74
2021/09/21 01:02:50;;;;;;;9.75;4.72;;;8.80;99.90;;;7.34;100.00;102872.78;4963498;28;20069;-74
2021/09/21 01:05:17;;;;;;;13.00;4.97;;;8.80;99.90;;;7.32;100.00;102892.84;4970880;28;20068;-73
2021/09/21 01:07:44;;;;;;;11.85;5.88;;;8.80;99.90;;;7.34;100.00;102965.41;4973887;28;20056;-74
2021/09/21 01:10:24;;;;;;;15.02;5.82;;;8.80;99.90;;;7.31;100.00;102956.63;4968163;28;20128;-73
2021/09/21 01:12:51;;;;;;;10.52;5.15;;;8.70;99.90;;;7.23;100.00;102945.25;4984976;28;20061;-73
2021/09/21 01:15:18;;;;;;;11.52;5.22;;;8.80;99.90;;;7.16;100.00;103013.34;4955119;28;20071;-74
2021/09/21 01:17:44;;;;;;;12.40;5.57;;;8.60;99.90;;;7.01;100.00;102992.34;4970579;28;20033;-74
2021/09/21 01:20:12;;;;;;;11.82;5.07;;;8.50;99.90;;;6.87;100.00;103015.84;4971563;28;20579;-73
2021/09/21 01:22:38;;;;;;;9.73;4.70;;;8.40;99.90;;;6.73;100.00;103062.88;4970741;28;20072;-74
2021/09/21 01:25:08;;;;;;;8.15;4.53;;;8.30;99.90;;;6.67;100.00;103051.50;4961841;28;20061;-73
2021/09/21 01:27:34;;;;;;;9.40;5.00;;;8.20;99.90;;;6.61;100.00;103023.56;4971374;28;20149;-74
2021/09/21 01:30:01;;;;;;;10.35;5.13;;;8.20;99.90;;;6.65;100.00;103054.13;4970058;28;20065;-74
2021/09/21 01:32:28;;;;;;;11.50;5.78;;;8.20;99.90;;;6.60;100.00;103029.63;4963115;28;20061;-74
2021/09/21 01:34:54;;;;;;;11.48;5.65;;;8.10;99.90;;;6.48;100.00;103063.56;4972364;28;20052;-73
2021/09/21 01:37:22;;;;;;;12.32;4.72;;;8.00;99.90;;;6.45;100.00;103069.66;4970882;28;20076;-74
2021/09/21 01:39:48;;;;;;;10.65;5.03;;;7.90;99.90;;;6.36;100.00;103073.06;4980983;28;20486;-73
2021/09/21 01:42:14;;;;;;;12.27;5.18;;;7.90;99.90;;;6.39;100.00;103042.56;4981478;28;20065;-74
2021/09/21 01:44:40;;;;;;;12.98;5.43;;;7.90;99.90;;;6.41;100.00;103067.88;4988167;28;20075;-74
2021/09/21 01:47:06;;;;;;;10.38;5.78;;;8.80;99.90;;;6.38;100.00;103096.66;4953557;28;20409;-73
2021/09/21 01:53:14;;;;;;;13.73;5.10;;;7.90;99.90;;;6.44;100.00;103048.72;4988429;28;20057;-74
2021/09/21 02:00:30;;;;;;;17.63;5.53;;;7.90;99.90;;;6.33;100.00;103098.38;4991012;28;22874;-74
2021/09/21 02:02:56;;;;;;;12.93;5.10;;;7.90;99.90;;;6.32;100.00;103059.97;5006045;28;20068;-74
2021/09/21 02:05:22;;;;;;;15.77;5.22;;;7.90;99.90;;;6.36;100.00;103080.06;4960746;28;20076;-73
2021/09/21 02:07:48;;;;;;;10.45;4.90;;;7.90;99.90;;;6.43;100.00;103047.84;4971367;28;20053;-73
2021/09/21 02:10:14;;;;;;;9.88;5.30;;;8.00;99.90;;;6.45;100.00;103100.19;4979185;28;20073;-73
2021/09/21 02:12:40;;;;;;;11.25;5.53;;;8.00;99.90;;;6.50;100.00;103124.66;4995887;28;20490;-74
2021/09/21 02:15:08;;;;;;;12.50;6.07;;;8.00;99.90;;;6.48;100.00;103085.41;4977393;28;20072;-74
2021/09/21 02:17:34;;;;;;;19.33;5.35;;;8.00;99.90;;;6.41;100.00;103111.50;4965969;28;20060;-74
2021/09/21 02:20:00;;;;;;;13.55;5.07;;;7.90;99.90;;;6.33;100.00;103091.38;4989520;28;20062;-73
2021/09/21 02:22:26;;;;;;;18.48;5.88;;;7.80;99.90;;;6.28;100.00;103098.28;4976726;28;20486;-74
2021/09/21 02:24:52;;;;;;;15.43;5.13;;;7.80;99.90;;;6.27;100.00;103098.31;4969619;28;20421;-74
2021/09/21 02:27:18;;;;;;;18.80;5.30;;;7.80;99.90;;;6.22;100.00;103089.50;4992211;28;20073;-74
2021/09/21 02:29:44;;;;;;;14.27;5.35;;;7.80;99.90;;;6.19;100.00;103087.75;4994075;28;20066;-74
2021/09/21 02:32:10;;;;;;;9.35;5.10;;;7.70;99.90;;;6.20;100.00;103140.94;4994702;28;20059;-73
2021/09/21 02:34:36;;;;;;;12.82;4.72;;;7.80;99.90;;;6.22;100.00;103129.66;4992361;28;20720;-74
2021/09/21 02:37:03;;;;;;;12.90;5.05;;;7.80;99.90;;;6.24;100.00;103145.34;4993279;28;20424;-74
2021/09/21 02:39:29;;;;;;;9.57;5.07;;;7.80;99.90;;;6.21;100.00;103135.75;4991633;28;20052;-74
2021/09/21 02:41:55;;;;;;;12.82;4.82;;;7.80;99.90;;;6.23;100.00;103128.78;4994569;28;20088;-73
2021/09/21 02:44:21;;;;;;;9.88;5.05;;;7.80;99.90;;;6.34;100.00;103192.56;4993513;28;20061;-74
2021/09/21 02:46:47;;;;;;;10.25;5.25;;;7.90;99.90;;;6.35;100.00;103204.81;4982631;28;20583;-74
2021/09/21 02:49:13;;;;;;;14.02;5.32;;;7.90;99.90;;;6.39;100.00;103183.88;4968779;28;20045;-74
2021/09/21 02:51:39;;;;;;;11.40;4.55;;;7.90;99.90;;;6.32;100.00;103143.69;4970942;28;20455;-74
2021/09/21 02:54:05;;;;;;;9.88;4.63;;;7.80;99.90;;;6.25;100.00;103168.94;4995569;28;20069;-74
2021/09/21 02:56:31;;;;;;;13.20;5.35;;;7.80;99.90;;;6.26;100.00;103219.50;4968228;28;20520;-73
2021/09/21 02:58:57;;;;;;;13.70;5.63;;;7.90;99.90;;;6.37;100.00;103207.41;4962408;28;20073;-74
2021/09/21 03:01:23;;;;;;;15.23;6.50;;;7.90;99.90;;;6.43;100.00;103253.72;4965978;28;20060;-73
2021/09/21 03:03:52;;;;;;;11.35;5.68;;;8.00;99.90;;;6.51;100.00;103265.16;4972249;28;20092;-74
2021/09/21 03:06:29;;;;;;;9.75;5.65;;;8.10;99.90;;;6.58;100.00;103262.59;4962750;28;20066;-74
2021/09/21 03:09:05;;;;;;;12.82;5.60;;;8.20;99.90;;;6.62;100.00;103250.44;4973958;28;20061;-74
2021/09/21 03:11:39;;;;;;;;;;;8.20;99.90;;;6.67;100.00;103251.34;4985471;28;20438;-74
2021/09/21 03:19:24;;;;;;;10.25;5.85;;;8.30;99.90;;;6.73;100.00;103285.44;4971417;28;20068;-74
2021/09/21 03:21:54;;;;;;;18.65;6.38;;;8.30;99.90;;;6.78;100.00;103302.13;4956722;28;20054;-74
2021/09/21 03:24:20;;;;;;;15.55;6.13;;;8.30;99.90;;;6.86;100.00;103269.88;4970266;28;20284;-74
2021/09/21 03:26:46;;;;;;;12.27;6.35;;;8.40;99.90;;;6.89;100.00;103268.16;4957239;28;20075;-73
2021/09/21 03:29:12;;;;;;;11.85;6.18;;;8.50;99.90;;;6.93;100.00;103269.97;4962348;28;20063;-74
2021/09/21 03:31:39;;;;;;;14.68;5.80;;;8.50;99.90;;;6.99;100.00;103321.50;4991106;28;20525;-74
2021/09/21 03:34:05;;;;;;;11.77;5.82;;;8.60;99.90;;;7.00;100.00;103302.31;4975864;28;20053;-74
2021/09/21 03:36:31;;;;;;;11.65;5.65;;;8.60;99.90;;;7.09;100.00;103327.72;4992599;28;20524;-73
2021/09/21 03:38:57;;;;;;;12.05;6.00;;;8.60;99.90;;;7.03;100.00;103309.34;4983473;28;20430;-74
2021/09/21 03:41:23;;;;;;;10.38;5.82;;;8.60;99.90;;;6.99;100.00;103338.09;4976622;28;20077;-74
2021/09/21 03:43:50;;;;;;;15.30;5.97;;;8.60;99.90;;;7.03;100.00;103378.31;4970875;28;20072;-74
2021/09/21 03:46:17;;;;;;;12.65;5.70;;;8.60;99.90;;;7.08;100.00;103391.47;4967349;28;20072;-73
2021/09/21 03:48:44;;;;;;;11.05;5.97;;;8.60;99.90;;;7.09;100.00;103385.38;4970569;28;20065;-74
2021/09/21 03:51:10;;;;;;;15.25;5.55;;;8.60;99.90;;;7.08;100.00;103381.84;4964799;28;20075;-74
2021/09/21 03:53:36;;;;;;;12.57;6.03;;;8.60;99.90;;;7.08;100.00;103370.50;4972377;28;20053;-74
2021/09/21 03:56:03;;;;;;;9.38;5.03;;;8.70;99.90;;;7.10;100.00;103390.59;4948190;28;21099;-74
2021/09/21 03:58:29;;;;;;;14.57;5.70;;;8.70;99.90;;;7.08;100.00;103418.53;4947106;28;20140;-74
2021/09/21 04:00:55;;;;;;;14.45;5.85;;;8.60;99.90;;;7.04;100.00;103419.38;4973603;28;20075;-74
2021/09/21 04:03:21;;;;;;;10.38;6.05;;;8.60;99.90;;;7.05;100.00;103447.34;4965388;28;20072;-74
2021/09/21 04:05:47;;;;;;;12.60;5.78;;;8.60;99.90;;;7.09;100.00;103436.03;4963503;28;20784;-74
2021/09/21 04:08:13;;;;;;;14.13;6.28;;;8.70;99.90;;;7.15;100.00;103419.50;4964964;28;20057;-74
2021/09/21 04:10:39;;;;;;;14.95;7.07;;;8.70;99.90;;;7.15;100.00;103454.44;4963874;28;20082;-74
2021/09/21 04:13:05;;;;;;;15.40;7.13;;;8.70;99.90;;;7.22;100.00;103455.38;4970911;28;20777;-74
2021/09/21 04:15:31;;;;;;;16.10;6.18;;;8.80;99.90;;;7.30;100.00;103474.72;4957064;28;20060;-74
2021/09/21 04:17:57;;;;;;;15.27;5.95;;;8.80;99.90;;;7.29;100.00;103469.44;4972781;28;20061;-74
2021/09/21 04:20:23;;;;;;;13.27;6.22;;;8.90;99.90;;;7.30;100.00;103514.03;4970452;28;20067;-74
2021/09/21 04:22:49;;;;;;;16.02;6.72;;;8.90;99.90;;;7.29;100.00;103527.97;4976163;28;20074;-74
2021/09/21 04:25:16;;;;;;;10.05;6.05;;;8.80;99.90;;;7.28;100.00;103564.63;4984908;28;20075;-74
2021/09/21 04:27:42;;;;;;;15.88;6.03;;;8.80;99.90;;;7.29;100.00;103555.94;4972796;28;20056;-74
2021/09/21 04:30:09;;;;;;;11.73;6.40;;;8.80;99.90;;;7.28;100.00;103590.84;4963483;28;20063;-74
2021/09/21 04:32:37;;;;;;;13.85;6.65;;;8.80;99.90;;;7.29;100.00;103582.13;4971280;28;20123;-74
2021/09/21 04:35:05;;;;;;;12.23;6.38;;;8.90;99.90;;;7.31;100.00;103619.75;4967302;28;20140;-74
2021/09/21 04:37:31;;;;;;;13.50;6.03;;;8.80;99.90;;;7.30;100.00;103592.66;4960269;28;20131;-74
2021/09/21 04:39:57;;;;;;;14.02;5.65;;;8.80;99.90;;;7.30;100.00;103574.31;4967764;28;20561;-74
2021/09/21 04:42:25;;;;;;;16.15;6.00;;;8.80;99.90;;;7.32;100.00;103626.72;4963802;28;20095;-74
2021/09/21 04:44:51;;;;;;;12.85;6.00;;;8.90;99.90;;;7.35;100.00;103666.97;4959123;28;20063;-74
2021/09/21 04:47:17;;;;;;;14.15;6.80;;;8.90;99.90;;;7.37;100.00;103814.69;4968299;28;20175;-74
2021/09/21 04:49:43;;;;;;;13.07;6.35;;;8.90;99.90;;;7.40;100.00;103597.13;4967087;28;20485;-74
2021/09/21 04:52:09;;;;;;;15.32;6.88;;;9.00;99.90;;;7.46;100.00;103619.06;4961570;28;22087;-74
2021/09/21 04:54:35;;;;;;;14.57;6.65;;;9.00;99.90;;;7.49;100.00;103575.38;4957210;28;20099;-74
2021/09/21 04:57:02;;;;;;;13.50;6.00;;;9.00;99.90;;;7.54;100.00;103643.63;4979378;28;20110;-74
2021/09/21 04:59:28;;;;;;;13.85;7.13;;;9.10;99.90;;;7.56;100.00;103692.63;4961497;28;20061;-73
2021/09/21 05:01:54;;;;;;;13.65;6.78;;;9.10;99.90;;;7.56;100.00;103697.00;4941007;28;20053;-74
2021/09/21 05:04:20;;;;;;;14.60;6.63;;;9.10;99.90;;;7.59;100.00;103657.69;4952441;28;20101;-74
2021/09/21 05:06:46;;;;;;;15.85;6.35;;;9.10;99.90;;;7.59;100.00;103551.03;4951722;28;20068;-74
2021/09/21 05:09:13;;;;;;;13.05;6.30;;;9.20;99.90;;;7.64;100.00;103526.59;4945098;28;20146;-74
2021/09/21 05:11:39;;;;;;;11.80;5.70;;;9.20;99.90;;;7.65;100.00;103536.25;4970554;28;20210;-74
2021/09/21 05:14:05;;;;;;;14.35;5.88;;;9.20;99.90;;;7.68;100.00;103610.56;4965621;28;20136;-74
2021/09/21 05:16:33;;;;;;;13.52;6.25;;;9.20;99.90;;;7.68;100.00;103596.59;4962604;28;20538;-74
2021/09/21 05:19:00;;;;;;;12.43;6.07;;;9.30;99.90;;;7.73;100.00;103246.06;4952049;28;20517;-74
2021/09/21 05:21:25;;;;;;;14.80;7.00;;;9.30;99.90;;;7.77;100.00;103074.72;4947596;28;20049;-74
2021/09/21 05:23:51;;;;;;;13.88;6.22;;;9.40;99.90;;;7.81;100.00;103111.47;4964477;28;20056;-74
2021/09/21 05:26:18;;;;;;;10.93;6.03;;;9.40;99.90;;;7.86;100.00;103179.69;4960356;28;20532;-74
2021/09/21 05:28:44;;;;;;;11.00;5.22;;;9.50;99.90;;;7.88;100.00;103162.19;4971481;28;20027;-74
2021/09/21 05:31:10;;;;;;;9.90;5.18;;;9.50;99.90;;;7.94;100.00;103114.13;4964529;28;20095;-74
2021/09/21 05:33:36;;;;;;;15.00;6.05;;;9.50;99.90;;;7.95;100.00;103153.50;4976455;28;20080;-74
2021/09/21 05:36:03;;;;;;;12.93;5.78;;;9.50;99.90;;;7.97;100.00;103174.50;4955849;28;20072;-74
2021/09/21 05:38:30;;;;;;;13.95;6.47;;;9.50;99.90;;;8.00;100.00;103153.50;4966975;28;20424;-74
2021/09/21 05:40:56;;;;;;;12.55;6.50;;;9.50;99.90;;;8.04;100.00;103175.38;4978269;28;20073;-74
2021/09/21 05:43:22;;;;;;;14.50;6.45;;;9.60;99.90;;;8.07;100.00;103204.25;4954482;28;20075;-74
2021/09/21 05:45:48;;;;;;;16.40;6.38;;;9.60;99.90;;;8.08;100.00;103200.75;4973741;28;20062;-74
2021/09/21 05:48:14;;;;;;;14.00;6.55;;;9.70;99.90;;;8.10;100.00;103231.38;4959266;28;20464;-74
2021/09/21 05:50:40;;;;;;;10.45;5.85;;;9.70;99.90;;;8.15;100.00;103278.63;4971581;28;20068;-74
2021/09/21 05:53:06;;;;;;;15.60;6.13;;;9.70;99.90;;;8.18;100.00;103247.16;4970522;28;20405;-74
2021/09/21 05:55:32;;;;;;;13.85;6.00;;;9.70;99.90;;;8.20;100.00;103313.66;4969691;28;20064;-74
2021/09/21 05:57:58;;;;;;;11.90;6.13;;;9.80;99.90;;;8.25;100.00;103330.31;4967478;28;20509;-74
2021/09/21 06:00:25;;;;;;;10.65;5.60;;;9.90;99.90;;;8.32;100.00;103373.22;4968846;28;20478;-74
2021/09/21 06:02:51;;;;;;;16.08;7.13;;;9.90;99.90;;;8.38;100.00;103379.38;4968608;28;20069;-74
2021/09/21 06:05:17;;;;;;;13.55;7.45;;;9.90;99.90;;;8.47;100.00;103409.22;4963141;28;20073;-74
2021/09/21 06:07:51;;;;;;;10.80;6.35;;;10.00;99.90;;;8.52;100.00;103431.09;4954832;28;20150;-74
2021/09/21 06:10:21;;;;;;;18.38;6.32;;;10.10;99.90;;;8.56;100.00;103443.38;4968100;28;20163;-74
2021/09/21 06:12:47;;;;;;;13.43;6.13;;;10.10;99.90;;;8.60;100.00;103501.19;4980523;28;20073;-74
2021/09/21 06:15:14;;;;;;;14.85;6.53;;;10.20;99.90;;;8.67;100.00;103511.75;4981651;28;20071;-74
2021/09/21 06:17:42;;;;;;;18.10;7.50;;;10.20;99.90;;;8.70;100.00;103464.47;4981031;28;20072;-74
2021/09/21 06:20:11;;;;;;;17.50;7.97;;;10.30;99.90;;;8.73;100.00;103401.44;4962683;28;20057;-74
2021/09/21 06:22:43;;;;;;;13.90;6.82;;;10.30;99.90;;;8.74;100.00;103396.19;4969611;28;20067;-74
2021/09/21 06:25:11;;;;;;;11.95;6.65;;;10.30;99.90;;;8.78;100.00;103429.47;4970447;28;20067;-74
2021/09/21 06:27:38;;;;;;;15.27;7.18;;;10.30;99.90;;;8.79;100.00;103418.09;4968096;28;20045;-74
2021/09/21 06:30:07;;;;;;;14.40;7.35;;;10.40;99.90;;;8.83;100.00;103816.63;4951733;28;20069;-74
2021/09/21 06:32:34;;;;;;;16.77;7.78;;;10.40;99.90;;;8.87;100.00;103530.22;4947055;28;20148;-74
2021/09/21 06:35:01;;;;;;;12.98;7.10;;;10.40;99.90;;;8.91;100.00;103534.63;4956481;28;20144;-74
2021/09/21 06:37:27;;;;;;;13.77;7.10;;;10.40;99.90;;;8.96;100.00;103509.25;4969363;28;20532;-74
2021/09/21 06:39:53;;;;;;;13.43;7.15;;;10.60;99.90;;;9.06;100.00;103563.63;4953265;28;20065;-74
2021/09/21 06:42:19;;;;;;;17.63;7.85;;;10.70;99.90;;;9.23;100.00;103575.09;4987047;28;20027;-74
2021/09/21 06:44:45;;;;;;;15.55;7.35;;;10.90;99.90;;;9.47;100.00;103697.06;4972768;28;20409;-74
2021/09/21 06:47:11;;;;;;;14.43;7.28;;;11.00;99.90;;;9.70;100.00;103683.13;4990593;28;20061;-74
2021/09/21 06:49:37;;;;;;;13.27;6.70;;;11.20;99.90;;;9.86;100.00;103811.28;4989613;28;20052;-74
2021/09/21 06:52:04;;;;;;;10.95;6.85;;;11.40;99.90;;;10.01;100.00;103679.72;4989250;28;20037;-74
2021/09/21 06:54:30;;;;;;;16.65;7.05;;;11.50;99.90;;;10.00;100.00;103633.25;4965129;28;20451;-74
2021/09/21 06:56:56;;;;;;;17.08;6.85;;;11.50;99.90;;;10.10;100.00;103577.97;4963344;28;20065;-74
2021/09/21 06:59:22;;;;;;;10.45;5.75;;;11.60;99.90;;;10.25;100.00;103570.06;4975826;28;20108;-74
2021/09/21 07:01:48;;;;;;;12.18;6.25;;;11.80;99.90;;;10.35;100.00;103521.81;4978032;28;20056;-74
2021/09/21 07:04:14;;;;;;;13.68;6.50;;;11.80;99.90;;;10.42;100.00;103484.03;4962967;28;20038;-74
2021/09/21 07:06:40;;;;;;;9.60;5.57;;;12.10;99.90;;;10.45;100.00;103455.09;4965738;28;20219;-74
2021/09/21 07:09:06;;;;;;;11.55;5.57;;;12.10;99.90;;;10.64;100.00;103462.91;4965045;28;20509;-74
2021/09/21 07:11:32;;;;;;;9.27;5.60;;;12.30;99.90;;;11.02;100.00;103483.00;4959702;28;20046;-74
2021/09/21 07:13:58;;;;;;;9.88;5.90;;;12.60;99.90;;;11.49;98.08;103508.25;4976709;28;20033;-74
2021/09/21 07:16:24;;;;;;;9.55;6.05;;;13.00;99.90;;;11.85;95.53;103471.91;4953597;28;20039;-74
2021/09/21 07:18:50;;;;;;;10.82;5.45;;;13.30;99.90;;;11.87;91.85;103438.44;4986665;28;20548;-74
2021/09/21 07:21:16;;;;;;;9.38;4.40;;;13.50;99.90;;;12.15;91.14;103430.31;4974122;28;20057;-74
2021/09/21 07:23:42;;;;;;;9.70;5.10;;;13.70;99.90;;;12.30;89.82;103412.50;4957424;28;20038;-74
2021/09/21 07:26:08;;;;;;;11.07;4.93;;;13.90;99.90;;;12.58;87.43;103417.47;4963800;28;20075;-74
2021/09/21 07:28:35;;;;;;;8.60;4.35;;;14.20;99.90;;;12.93;85.38;103427.59;4966117;28;20026;-74
2021/09/21 07:31:01;;;;;;;10.32;4.72;;;14.60;99.90;;;13.42;84.49;103456.94;4966385;28;20052;-74
2021/09/21 07:33:27;;;;;;;10.52;4.68;;;15.20;99.90;;;14.23;79.40;103481.19;4965704;28;20054;-74
2021/09/21 07:35:53;;;;;;;7.22;3.88;;;15.70;99.90;;;14.48;76.08;103474.53;4986998;28;20430;-74
2021/09/21 07:38:20;;;;;;;8.40;4.28;;;16.00;99.90;;;14.35;75.74;103422.66;4955585;28;20042;-74
2021/09/21 07:40:47;;;;;;;7.93;4.10;;;15.70;99.90;;;13.73;77.31;103368.16;4970093;28;20514;-73
2021/09/21 07:43:14;;;;;;;7.35;4.45;;;15.30;99.90;;;13.46;79.99;103355.44;4964553;28;20115;-74
2021/09/21 07:45:40;;;;;;;8.35;4.78;;;15.00;99.90;;;13.20;81.72;103332.88;4961119;28;20027;-74
2021/09/21 07:48:06;;;;;;;9.20;4.55;;;14.70;99.90;;;12.89;82.71;103296.34;4973536;28;20025;-74
2021/09/21 07:50:33;;;;;;;11.05;5.38;;;14.30;99.90;;;12.59;84.56;103284.44;4962944;28;20202;-74
2021/09/21 07:52:59;;;;;;;9.65;5.03;;;14.10;99.90;;;12.47;85.58;103277.56;4957400;28;20046;-74
2021/09/21 07:55:25;;;;;;;8.10;4.20;;;14.00;99.90;;;12.32;83.34;103260.13;4963823;28;20031;-74
2021/09/21 07:57:51;;;;;;;10.27;4.60;;;13.80;99.90;;;12.28;84.93;103244.34;4972687;28;20486;-74
2021/09/21 08:00:22;;;;;;;8.40;4.18;;;13.80;99.90;;;12.26;82.53;103235.56;4969934;28;20034;-74
2021/09/21 08:02:48;;;;;;;7.35;4.10;;;14.00;99.90;;;12.89;83.90;103328.06;4975684;28;20511;-74
2021/09/21 08:05:14;;;;;;;7.00;4.00;;;14.50;99.90;;;13.14;81.49;103307.38;4948428;28;20038;-74
2021/09/21 08:07:42;;;;;;;9.23;4.13;;;14.40;99.90;;;12.80;80.17;103258.56;4953625;28;20027;-74
2021/09/21 08:10:11;;;;;;;7.22;3.70;;;14.30;99.90;;;12.77;80.96;103251.56;4954027;28;20033;-74
2021/09/21 08:12:38;;;;;;;7.30;3.83;;;14.10;99.90;;;12.67;81.66;103240.25;4970090;28;20030;-74
2021/09/21 08:15:05;;;;;;;5.18;3.22;;;14.20;99.90;;;12.76;81.91;103239.22;4962843;28;20514;-74
2021/09/21 08:17:31;;;;;;;5.75;3.28;;;14.40;99.90;;;13.01;80.07;103246.78;4973006;28;20037;-74
2021/09/21 08:19:57;;;;;;;5.82;3.50;;;14.50;99.90;;;13.10;82.14;103262.50;4946193;28;20442;-74
2021/09/21 08:22:25;;;;;;;7.63;3.83;;;14.50;99.90;;;13.14;80.93;103253.59;4971345;28;20084;-74
2021/09/21 08:24:52;;;;;;;6.03;3.40;;;14.50;99.90;;;12.99;80.15;103232.72;4972800;28;20079;-74
2021/09/21 08:27:18;;;;;;;5.38;3.30;;;14.40;99.90;;;12.80;78.56;103198.63;4973114;28;20098;-74
2021/09/21 08:29:44;;;;;;;6.38;3.22;;;14.30;99.90;;;12.73;79.65;103195.22;4961545;28;20058;-74
2021/09/21 08:32:10;;;;;;;5.28;3.00;;;14.20;99.90;;;12.64;79.34;103154.88;4975529;28;20065;-74
2021/09/21 08:34:37;;;;;;;4.78;3.25;;;14.10;99.90;;;12.72;81.85;103195.22;4973998;28;20065;-74
2021/09/21 08:37:03;;;;;;;5.45;2.88;;;14.00;99.90;;;12.43;77.95;103135.81;4990427;28;20030;-74
2021/09/21 08:39:29;;;;;;;5.75;3.38;;;13.90;99.90;;;12.50;81.28;103171.81;4968029;28;20216;-74
2021/09/21 08:41:56;;;;;;;3.92;2.85;;;14.00;99.90;;;12.59;79.67;103162.88;4990817;28;20038;-74
2021/09/21 08:44:22;;;;;;;5.70;3.17;;;13.90;99.90;;;12.54;78.08;103147.97;4990043;28;20035;-74
2021/09/21 08:46:49;;;;;;;4.90;3.20;;;14.00;99.90;;;12.83;77.52;103169.50;4969847;28;20487;-74
2021/09/21 08:49:16;;;;;;;6.43;3.28;;;14.30;99.90;;;13.14;78.67;103198.06;4974500;28;20068;-74
2021/09/21 08:51:43;;;;;;;5.78;3.33;;;14.60;99.90;;;13.58;75.94;103219.31;4959368;28;20042;-74
2021/09/21 08:54:10;;;;;;;5.65;3.10;;;15.00;99.90;;;14.11;73.10;103234.13;4965670;28;20031;-74
2021/09/21 08:56:36;;;;;;;6.43;2.95;;;15.50;99.90;;;14.62;72.42;103285.16;4965104;28;20035;-74
2021/09/21 08:59:10;;;;;;;4.30;2.78;;;15.70;99.90;;;14.30;70.16;103239.88;4970744;28;20398;-74
2021/09/21 09:01:58;;;;;;;3.78;2.90;;;15.70;99.90;;;14.25;69.55;103215.25;4919851;28;20045;-74
2021/09/21 09:04:35;;;;;;;4.72;2.70;;;15.70;99.90;;;14.35;69.56;103216.78;4949281;28;20033;-74
2021/09/21 09:07:06;;;;;;;4.40;2.90;;;15.50;99.90;;;13.76;69.68;103142.19;4949100;28;20079;-74
2021/09/21 09:09:37;;;;;;;5.97;2.92;;;15.20;99.90;;;13.40;71.43;103117.34;4950466;28;20030;-74
2021/09/21 09:12:28;;;;;;;4.85;2.92;;;14.80;99.90;;;13.06;69.79;103076.50;4951494;28;20759;-73
2021/09/21 09:15:18;;;;;;;4.32;2.47;;;14.60;99.90;;;13.23;72.02;103109.72;4962030;28;20030;-74
2021/09/21 09:18:05;;;;;;;5.65;2.90;;;14.60;99.90;;;13.20;72.28;103089.47;4943291;28;20053;-74
2021/09/21 09:21:09;;;;;;;5.90;2.83;;;14.60;99.90;;;13.12;73.22;103094.06;4934631;28;20449;-74
2021/09/21 09:24:20;;;;;;;5.45;2.72;;;14.90;99.90;;;13.17;75.22;103096.59;4941150;28;20092;-73
2021/09/21 09:27:30;;;;;;;5.32;3.05;;;14.60;99.90;;;13.34;74.29;103087.44;4931775;28;20155;-74
2021/09/21 09:30:20;;;;;;;6.13;2.60;;;14.80;99.90;;;13.49;73.12;103094.19;4954796;28;20187;-74
2021/09/21 09:33:33;;;;;;;6.13;2.92;;;14.70;99.90;;;13.24;74.01;103067.34;4928716;28;20063;-74
2021/09/21 09:36:23;;;;;;;6.03;2.80;;;14.80;99.90;;;13.43;74.99;103093.44;4950155;28;20129;-74
2021/09/21 09:39:07;;;;;;;4.13;2.92;;;14.80;99.90;;;13.38;74.06;103071.53;4945205;28;20065;-73
2021/09/21 09:41:50;;;;;;;4.30;2.60;;;14.80;99.90;;;13.20;71.79;103027.78;4914971;28;20031;-73
2021/09/21 09:44:31;;;;;;;6.72;3.10;;;14.60;99.90;;;13.23;74.52;103055.00;4936465;28;20069;-74
2021/09/21 09:47:19;;;;;;;7.03;3.10;;;14.70;99.90;;;13.43;72.66;103083.72;4950870;28;20120;-73
2021/09/21 09:49:48;;;;;;;4.32;2.90;;;14.80;99.90;;;13.43;72.68;103074.94;4949012;28;20034;-73
2021/09/21 09:52:21;;;;;;;4.30;2.97;;;14.70;99.90;;;13.27;73.19;103047.91;4948021;28;20196;-74
2021/09/21 09:55:00;;;;;;;4.88;3.13;;;14.80;99.90;;;13.63;73.55;103093.91;4956171;28;20054;-73
2021/09/21 09:57:47;;;;;;;5.65;2.95;;;15.20;99.90;;;14.03;72.45;103108.91;4954884;28;20502;-74
2021/09/21 10:00:18;;;;;;;3.35;2.65;;;15.20;99.90;;;13.98;73.21;103100.19;4944412;28;20073;-74
2021/09/21 10:02:44;;;;;;;5.55;2.95;;;15.20;99.90;;;13.63;72.64;103051.56;4959696;28;20072;-73
2021/09/21 10:05:32;;;;;;;4.28;2.58;;;14.90;99.90;;;13.29;72.55;103031.13;4963554;28;20434;-73
2021/09/21 10:08:38;;;;;;;7.25;2.67;;;14.80;99.90;;;13.52;73.93;103056.22;4953886;28;20042;-74
2021/09/21 10:11:51;;;;;;;5.07;2.50;;;14.90;99.90;;;13.62;71.06;103038.34;4951423;28;20034;-73
2021/09/21 10:17:53;;;;;;;3.63;2.35;;;15.10;99.90;;;13.84;70.08;103039.59;4953217;28;20092;-74
2021/09/21 10:21:51;;;;;;;4.53;2.40;;;15.40;99.90;;;14.33;69.50;103083.44;4951582;28;20033;-74
2021/09/21 10:24:45;;;;;;;4.72;2.03;;;15.60;99.90;;;14.10;64.62;103033.69;4942431;28;20059;-73
2021/09/21 10:27:20;;;;;;;3.28;2.22;;;15.40;99.90;;;13.95;66.44;103020.78;4950263;28;20579;-73
2021/09/21 10:30:21;;;;;;;2.95;2.17;;;15.30;99.90;;;13.82;69.64;103030.84;4942095;28;20057;-73
2021/09/21 10:33:23;;;;;;;4.22;2.58;;;15.20;99.90;;;13.80;69.17;103022.06;4909600;28;20034;-74
2021/09/21 10:35:50;;;;;;;3.28;1.80;;;15.10;99.90;;;13.62;66.60;102970.38;4941506;28;20065;-73
2021/09/21 10:38:22;;;;;;;3.60;2.20;;;15.00;99.90;;;13.59;68.66;102970.47;4948107;28;20092;-74
2021/09/21 10:41:04;;;;;;;3.60;2.35;;;15.10;99.90;;;14.02;70.23;103016.25;4913161;28;20430;-74